createdAt,value
2023-01-31T00:01:20.875Z,12.60
2023-01-31T00:03:48.479Z,12.02
2023-01-31T00:06:17.047Z,12.38
2023-01-31T00:08:44.939Z,12.35
2023-01-31T00:11:11.579Z,12.02
2023-01-31T00:13:39.068Z,11.85
2023-01-31T00:16:06.440Z,11.48
2023-01-31T00:18:33.065Z,11.20
2023-01-31T00:21:17.646Z,11.25
2023-01-31T00:23:46.505Z,10.57
2023-01-31T00:26:15.040Z,11.30
2023-01-31T00:28:42.543Z,11.43
2023-01-31T00:31:10.503Z,11.10
2023-01-31T00:33:38.736Z,11.43
2023-01-31T00:36:07.198Z,11.30
2023-01-31T00:38:34.632Z,11.25
2023-01-31T00:41:01.941Z,10.95
2023-01-31T00:45:55.145Z,10.23
2023-01-31T00:48:21.939Z,10.75
2023-01-31T00:50:48.639Z,11.57
2023-01-31T00:53:15.234Z,11.10
2023-01-31T00:55:41.728Z,10.82
2023-01-31T00:58:08.291Z,10.98
2023-01-31T01:00:35.071Z,8.02
2023-01-31T01:03:01.653Z,10.82
2023-01-31T01:05:28.193Z,10.23
2023-01-31T01:07:54.799Z,11.25
2023-01-31T01:10:21.538Z,11.32
2023-01-31T01:12:48.065Z,11.13
2023-01-31T01:15:14.968Z,11.80
2023-01-31T01:17:41.583Z,11.80
2023-01-31T01:20:09.141Z,11.13
2023-01-31T01:22:36.805Z,10.88
2023-01-31T01:25:03.563Z,12.15
2023-01-31T01:27:30.432Z,14.00
2023-01-31T01:29:57.031Z,18.83
2023-01-31T01:32:23.618Z,19.95
2023-01-31T01:34:50.820Z,20.42
2023-01-31T01:37:20.260Z,18.98
2023-01-31T01:39:48.144Z,19.30
2023-01-31T01:42:22.651Z,20.67
2023-01-31T01:44:49.381Z,19.38
2023-01-31T01:47:21.545Z,21.52
2023-01-31T01:49:54.102Z,21.13
2023-01-31T01:52:22.339Z,20.10
2023-01-31T01:54:54.402Z,20.35
2023-01-31T01:57:25.680Z,19.88
2023-01-31T02:00:04.720Z,20.27
2023-01-31T02:02:32.164Z,20.65
2023-01-31T02:04:59.269Z,21.77
2023-01-31T02:07:26.800Z,21.70
2023-01-31T02:10:13.051Z,21.15
2023-01-31T02:12:40.216Z,15.43
2023-01-31T02:15:07.560Z,20.58
2023-01-31T02:17:34.572Z,21.83
2023-01-31T02:20:19.448Z,22.08
2023-01-31T02:23:22.829Z,20.35
2023-01-31T02:26:10.437Z,21.67
2023-01-31T02:28:48.378Z,19.70
2023-01-31T02:31:33.267Z,17.58
2023-01-31T02:34:20.415Z,12.85
2023-01-31T02:37:14.398Z,12.57
2023-01-31T02:40:18.397Z,12.50
2023-01-31T02:43:06.069Z,12.85
2023-01-31T02:46:03.098Z,12.90
2023-01-31T02:49:14.358Z,12.90
2023-01-31T02:52:05.818Z,12.30
2023-01-31T02:54:54.354Z,12.70
2023-01-31T02:57:22.294Z,12.30
2023-01-31T02:59:49.155Z,13.02
2023-01-31T03:02:16.048Z,13.13
2023-01-31T03:04:43.287Z,14.15
2023-01-31T03:10:02.370Z,13.55
2023-01-31T03:12:43.091Z,13.15
2023-01-31T03:15:51.229Z,13.77
2023-01-31T03:18:24.149Z,14.20
2023-01-31T03:21:11.497Z,14.48
2023-01-31T03:23:41.751Z,14.60
2023-01-31T03:26:09.511Z,14.55
2023-01-31T03:28:42.241Z,14.60
2023-01-31T03:31:20.088Z,14.75
2023-01-31T03:33:52.589Z,14.45
2023-01-31T03:36:54.734Z,13.88
2023-01-31T03:39:37.777Z,15.18
2023-01-31T03:42:13.520Z,14.70
2023-01-31T03:45:07.642Z,14.25
2023-01-31T03:47:43.407Z,14.68
2023-01-31T03:50:15.272Z,14.82
2023-01-31T03:53:07.636Z,14.88
2023-01-31T03:55:39.923Z,14.77
2023-01-31T03:58:08.809Z,14.25
2023-01-31T04:00:39.111Z,14.35
2023-01-31T04:03:20.405Z,14.05
2023-01-31T04:05:49.141Z,14.35
2023-01-31T04:08:16.841Z,13.90
2023-01-31T04:10:43.892Z,13.80
2023-01-31T04:13:10.445Z,14.35
2023-01-31T04:15:37.051Z,13.93
2023-01-31T04:18:03.634Z,14.40
2023-01-31T04:20:30.414Z,10.95
2023-01-31T04:22:57.144Z,15.65
2023-01-31T04:25:23.872Z,15.60
2023-01-31T04:27:51.626Z,13.55
2023-01-31T04:30:18.432Z,13.40
2023-01-31T04:32:44.948Z,12.40
2023-01-31T04:35:11.723Z,12.95
2023-01-31T04:37:38.290Z,11.60
2023-01-31T04:40:05.952Z,8.23
2023-01-31T04:42:33.139Z,11.60
2023-01-31T04:44:59.952Z,11.77
2023-01-31T04:47:26.491Z,10.32
2023-01-31T04:49:53.035Z,10.95
2023-01-31T04:52:19.610Z,10.35
2023-01-31T04:54:46.157Z,11.15
2023-01-31T04:57:12.805Z,10.13
2023-01-31T04:59:39.411Z,16.70
2023-01-31T05:02:06.271Z,12.75
2023-01-31T05:04:32.964Z,16.50
2023-01-31T05:06:59.506Z,16.17
2023-01-31T05:09:26.432Z,18.45
2023-01-31T05:11:53.056Z,14.30
2023-01-31T05:14:21.120Z,11.93
2023-01-31T05:16:47.778Z,11.90
2023-01-31T05:19:15.132Z,10.75
2023-01-31T05:24:31.883Z,10.65
2023-01-31T05:27:01.780Z,9.15
2023-01-31T05:29:30.727Z,8.48
2023-01-31T05:31:59.996Z,9.35
2023-01-31T05:34:28.801Z,9.48
2023-01-31T05:36:56.103Z,8.80
2023-01-31T05:41:49.491Z,9.15
2023-01-31T05:44:16.462Z,8.82
2023-01-31T05:46:43.281Z,9.38
2023-01-31T05:49:09.877Z,9.35
2023-01-31T05:51:36.527Z,8.93
2023-01-31T05:54:03.134Z,8.68
2023-01-31T05:56:29.796Z,9.73
2023-01-31T05:58:56.643Z,6.57
2023-01-31T06:01:25.874Z,9.10
2023-01-31T06:03:52.824Z,8.68
2023-01-31T06:06:21.192Z,9.20
2023-01-31T06:08:48.078Z,9.20
2023-01-31T06:11:15.128Z,9.60
2023-01-31T06:13:45.590Z,9.45
2023-01-31T06:16:12.920Z,9.18
2023-01-31T06:18:39.729Z,9.32
2023-01-31T06:21:06.277Z,6.40
2023-01-31T06:23:34.542Z,7.47
2023-01-31T06:26:01.265Z,10.20
2023-01-31T06:28:28.038Z,9.40
2023-01-31T06:30:54.945Z,9.52
2023-01-31T06:33:26.412Z,9.20
2023-01-31T06:36:01.479Z,7.13
2023-01-31T06:38:28.628Z,8.05
2023-01-31T06:40:55.502Z,8.77
2023-01-31T06:43:22.522Z,10.30
2023-01-31T06:45:49.612Z,9.13
2023-01-31T06:48:16.842Z,9.05
2023-01-31T06:50:44.702Z,10.73
2023-01-31T06:53:11.261Z,8.70
2023-01-31T06:55:39.014Z,11.68
2023-01-31T06:58:05.542Z,10.00
2023-01-31T07:00:32.742Z,7.38
2023-01-31T07:02:59.305Z,8.63
2023-01-31T07:05:25.939Z,6.32
2023-01-31T07:07:52.646Z,7.72
2023-01-31T07:10:19.370Z,8.50
2023-01-31T07:12:45.949Z,8.60
2023-01-31T07:15:12.764Z,7.95
2023-01-31T07:17:39.508Z,9.07
2023-01-31T07:20:06.685Z,8.02
2023-01-31T07:22:33.463Z,8.10
2023-01-31T07:25:00.200Z,8.05
2023-01-31T07:27:27.450Z,7.65
2023-01-31T07:29:53.981Z,8.40
2023-01-31T07:32:20.607Z,8.00
2023-01-31T07:34:47.112Z,7.82
2023-01-31T07:37:13.685Z,8.50
2023-01-31T07:39:40.226Z,8.40
2023-01-31T07:42:06.746Z,8.15
2023-01-31T07:44:33.310Z,6.05
2023-01-31T07:46:59.938Z,8.02
2023-01-31T07:49:26.742Z,5.80
2023-01-31T07:51:53.358Z,7.30
2023-01-31T07:54:19.887Z,7.68
2023-01-31T07:56:47.551Z,7.63
2023-01-31T07:59:14.275Z,7.13
2023-01-31T08:01:59.382Z,6.32
2023-01-31T08:04:25.983Z,7.07
2023-01-31T08:06:55.538Z,8.02
2023-01-31T08:09:23.382Z,6.85
2023-01-31T08:11:50.015Z,7.15
2023-01-31T08:14:16.626Z,6.80
2023-01-31T08:16:43.201Z,7.25
2023-01-31T08:19:09.792Z,6.57
2023-01-31T08:21:36.447Z,5.13
2023-01-31T08:24:03.235Z,7.03
2023-01-31T08:26:29.829Z,6.90
2023-01-31T08:28:57.109Z,7.25
2023-01-31T08:33:53.235Z,5.97
2023-01-31T08:36:29.527Z,6.00
2023-01-31T08:38:56.501Z,6.50
2023-01-31T08:41:25.501Z,5.85
2023-01-31T08:43:56.699Z,6.05
2023-01-31T08:46:26.451Z,6.55
2023-01-31T08:48:53.248Z,5.80
2023-01-31T08:51:19.841Z,6.15
2023-01-31T08:53:47.356Z,7.22
2023-01-31T08:56:14.771Z,9.50
2023-01-31T08:58:43.194Z,8.57
2023-01-31T09:01:15.588Z,7.93
2023-01-31T09:03:45.048Z,6.75
2023-01-31T09:06:17.097Z,6.82
2023-01-31T09:08:44.183Z,6.28
2023-01-31T09:11:10.786Z,5.82
2023-01-31T09:13:37.400Z,6.20
2023-01-31T09:16:09.033Z,5.78
2023-01-31T09:18:37.643Z,5.78
2023-01-31T09:21:09.302Z,6.63
2023-01-31T09:23:36.430Z,5.47
2023-01-31T09:26:03.944Z,5.60
2023-01-31T09:28:30.940Z,4.93
2023-01-31T09:31:06.174Z,5.38
2023-01-31T09:33:33.803Z,5.93
2023-01-31T09:36:02.845Z,6.00
2023-01-31T09:38:29.760Z,5.60
2023-01-31T09:40:59.524Z,7.47
2023-01-31T09:43:36.470Z,7.95
2023-01-31T09:46:06.678Z,6.05
2023-01-31T09:48:37.207Z,5.35
2023-01-31T09:51:05.619Z,5.15
2023-01-31T09:53:38.715Z,4.60
2023-01-31T09:56:07.915Z,4.82
2023-01-31T09:59:01.792Z,4.47
2023-01-31T10:01:47.197Z,6.00
2023-01-31T10:04:33.060Z,6.97
2023-01-31T10:07:27.220Z,5.13
2023-01-31T10:10:16.337Z,5.00
2023-01-31T10:12:48.523Z,4.45
2023-01-31T10:15:22.916Z,4.20
2023-01-31T10:17:55.341Z,4.53
2023-01-31T10:20:51.025Z,4.38
2023-01-31T10:23:41.964Z,4.75
2023-01-31T10:26:29.122Z,4.43
2023-01-31T10:29:16.497Z,4.32
2023-01-31T10:31:59.169Z,3.80
2023-01-31T10:34:45.242Z,4.25
2023-01-31T10:37:31.706Z,4.20
2023-01-31T10:40:33.994Z,3.25
2023-01-31T10:43:16.682Z,3.60
2023-01-31T10:45:43.460Z,11.30
2023-01-31T10:48:15.181Z,12.95
2023-01-31T10:50:56.994Z,7.32
2023-01-31T10:53:51.356Z,6.47
2023-01-31T10:56:41.986Z,7.45
2023-01-31T10:59:24.044Z,8.10
2023-01-31T11:01:51.450Z,7.53
2023-01-31T11:04:40.515Z,5.75
2023-01-31T11:07:07.519Z,6.10
2023-01-31T11:09:39.205Z,5.93
2023-01-31T11:12:07.790Z,4.38
2023-01-31T11:14:35.630Z,4.28
2023-01-31T11:17:22.607Z,3.13
2023-01-31T11:22:25.757Z,4.30
2023-01-31T11:24:53.904Z,6.25
2023-01-31T11:27:27.801Z,3.88
2023-01-31T11:29:59.941Z,3.95
2023-01-31T11:32:35.207Z,3.80
2023-01-31T11:35:21.773Z,4.32
2023-01-31T11:37:59.503Z,7.28
2023-01-31T11:40:33.661Z,5.88
2023-01-31T11:43:02.898Z,5.40
2023-01-31T11:45:36.862Z,4.45
2023-01-31T11:48:12.345Z,5.28
2023-01-31T11:50:41.140Z,3.63
2023-01-31T11:53:24.437Z,3.70
2023-01-31T11:55:55.223Z,11.13
2023-01-31T11:58:23.182Z,9.75
2023-01-31T12:00:56.896Z,6.50
2023-01-31T12:03:24.893Z,5.30
2023-01-31T12:05:59.629Z,6.50
2023-01-31T12:08:31.210Z,7.72
2023-01-31T12:10:59.158Z,7.72
2023-01-31T12:13:26.427Z,12.35
2023-01-31T12:15:56.148Z,8.57
2023-01-31T12:18:53.452Z,7.05
2023-01-31T12:21:23.028Z,7.80
2023-01-31T12:24:05.022Z,8.35
2023-01-31T12:26:44.088Z,6.82
2023-01-31T12:29:43.057Z,8.25
2023-01-31T12:32:31.377Z,6.82
2023-01-31T12:35:17.089Z,6.95
2023-01-31T12:38:25.448Z,4.97
2023-01-31T12:41:18.157Z,3.88
2023-01-31T12:43:44.618Z,3.80
2023-01-31T12:46:16.470Z,4.10
2023-01-31T12:49:30.742Z,5.40
2023-01-31T12:52:19.194Z,4.88
2023-01-31T12:54:48.715Z,3.63
2023-01-31T12:57:33.940Z,5.90
2023-01-31T13:00:19.072Z,7.15
2023-01-31T13:03:08.550Z,7.25
2023-01-31T13:05:51.818Z,6.18
2023-01-31T13:08:24.803Z,3.92
2023-01-31T13:10:56.851Z,5.55
2023-01-31T13:13:32.043Z,3.20
2023-01-31T13:16:05.617Z,2.78
2023-01-31T13:18:34.993Z,3.20
2023-01-31T13:21:07.820Z,2.28
2023-01-31T13:23:44.955Z,2.20
2023-01-31T13:29:01.694Z,2.42
2023-01-31T13:31:40.191Z,2.55
2023-01-31T13:34:19.498Z,2.40
2023-01-31T13:36:52.193Z,6.40
2023-01-31T13:39:27.636Z,4.18
2023-01-31T13:41:54.219Z,3.22
2023-01-31T13:44:21.099Z,8.65
2023-01-31T13:47:12.330Z,9.18
2023-01-31T13:49:47.172Z,4.13
2023-01-31T13:52:47.648Z,4.97
2023-01-31T13:55:42.664Z,6.10
2023-01-31T13:58:15.610Z,3.83
2023-01-31T14:00:44.474Z,8.80
2023-01-31T14:03:14.685Z,7.50
2023-01-31T14:05:41.183Z,5.40
2023-01-31T14:08:38.574Z,7.10
2023-01-31T14:11:27.801Z,2.20
2023-01-31T14:14:09.590Z,2.60
2023-01-31T14:16:42.891Z,2.30
2023-01-31T14:19:24.707Z,2.20
2023-01-31T14:21:54.061Z,2.10
2023-01-31T14:24:42.087Z,2.00
2023-01-31T14:27:18.455Z,3.65
2023-01-31T14:29:47.099Z,2.55
2023-01-31T14:32:29.906Z,3.03
2023-01-31T14:34:57.541Z,2.80
2023-01-31T14:37:57.584Z,2.40
2023-01-31T14:40:29.156Z,2.33
2023-01-31T14:43:22.078Z,3.17
2023-01-31T14:45:57.667Z,2.85
2023-01-31T14:48:38.987Z,2.80
2023-01-31T14:51:30.410Z,2.97
2023-01-31T14:54:12.492Z,2.63
2023-01-31T14:56:54.011Z,2.50
2023-01-31T14:59:33.160Z,6.10
2023-01-31T15:02:02.789Z,3.63
2023-01-31T15:04:29.695Z,3.55
2023-01-31T15:06:57.389Z,6.55
2023-01-31T15:09:27.816Z,15.00
2023-01-31T15:11:56.385Z,11.27
2023-01-31T15:14:49.319Z,11.73
2023-01-31T15:17:36.482Z,8.13
2023-01-31T15:20:18.719Z,3.63
2023-01-31T15:22:45.839Z,3.88
2023-01-31T15:25:39.753Z,2.78
2023-01-31T15:28:08.038Z,3.75
2023-01-31T15:30:36.589Z,5.00
2023-01-31T15:33:28.348Z,3.47
2023-01-31T15:36:09.547Z,3.22
2023-01-31T15:38:43.653Z,2.92
2023-01-31T15:41:22.971Z,2.08
2023-01-31T15:43:57.111Z,2.40
2023-01-31T15:46:29.671Z,5.03
2023-01-31T15:48:57.095Z,2.65
2023-01-31T15:51:23.762Z,1.98
2023-01-31T15:54:06.108Z,2.70
2023-01-31T15:56:35.634Z,2.70
2023-01-31T15:59:10.294Z,2.30
2023-01-31T16:01:36.980Z,2.50
2023-01-31T16:04:05.166Z,2.70
2023-01-31T16:06:38.241Z,3.58
2023-01-31T16:09:06.839Z,3.85
2023-01-31T16:11:35.481Z,48.70
2023-01-31T16:14:05.174Z,7.43
2023-01-31T16:16:35.552Z,15.52
2023-01-31T16:19:03.558Z,6.60
2023-01-31T16:21:41.206Z,5.20
2023-01-31T16:24:16.367Z,3.90
2023-01-31T16:27:08.944Z,4.18
2023-01-31T16:29:53.172Z,3.40
2023-01-31T16:32:31.833Z,4.40
2023-01-31T16:35:09.041Z,5.00
2023-01-31T16:37:40.911Z,7.57
2023-01-31T16:40:46.770Z,5.53
2023-01-31T16:43:27.476Z,5.55
2023-01-31T16:45:58.819Z,8.13
2023-01-31T16:48:32.471Z,6.43
2023-01-31T16:51:01.472Z,5.70
2023-01-31T16:53:31.199Z,6.57
2023-01-31T16:56:17.995Z,10.98
2023-01-31T16:58:46.842Z,10.07
2023-01-31T17:01:16.607Z,7.28
2023-01-31T17:03:43.746Z,11.68
2023-01-31T17:06:19.698Z,9.80
2023-01-31T17:08:46.695Z,6.32
2023-01-31T17:11:19.624Z,8.05
2023-01-31T17:13:50.451Z,8.68
2023-01-31T17:16:24.454Z,10.02
2023-01-31T17:18:55.064Z,9.48
2023-01-31T17:21:24.321Z,8.93
2023-01-31T17:23:51.532Z,8.63
2023-01-31T17:26:21.257Z,9.68
2023-01-31T17:29:00.849Z,8.65
2023-01-31T17:31:29.787Z,8.18
2023-01-31T17:33:56.770Z,9.98
2023-01-31T17:36:23.713Z,10.93
2023-01-31T17:38:52.043Z,10.70
2023-01-31T17:41:21.321Z,10.68
2023-01-31T17:43:47.884Z,9.70
2023-01-31T17:46:16.602Z,7.88
2023-01-31T17:48:44.172Z,8.20
2023-01-31T17:51:11.742Z,9.07
2023-01-31T17:53:47.887Z,13.10
2023-01-31T17:56:15.969Z,22.98
2023-01-31T17:58:42.664Z,11.80
2023-01-31T18:01:10.741Z,5.65
2023-01-31T18:03:37.778Z,5.30
2023-01-31T18:06:06.553Z,6.38
2023-01-31T18:08:33.653Z,5.72
2023-01-31T18:11:11.367Z,6.10
2023-01-31T18:13:38.462Z,6.70
2023-01-31T18:16:10.572Z,6.40
2023-01-31T18:18:40.730Z,4.40
2023-01-31T18:21:12.219Z,6.35
2023-01-31T18:23:38.788Z,8.25
2023-01-31T18:26:07.221Z,7.55
2023-01-31T18:28:34.294Z,10.90
2023-01-31T18:31:05.707Z,13.88
2023-01-31T18:33:32.431Z,14.85
2023-01-31T18:36:00.704Z,9.98
2023-01-31T18:38:28.804Z,9.40
2023-01-31T18:40:56.127Z,9.23
2023-01-31T18:48:16.399Z,8.98
2023-01-31T18:50:43.063Z,8.15
2023-01-31T18:53:09.737Z,7.97
2023-01-31T18:55:36.279Z,9.77
2023-01-31T18:58:03.008Z,8.60
2023-01-31T19:00:29.689Z,9.05
2023-01-31T19:02:56.276Z,9.43
2023-01-31T19:05:23.648Z,7.65
2023-01-31T19:07:50.585Z,8.80
2023-01-31T19:10:17.536Z,7.57
2023-01-31T19:12:44.168Z,8.13
2023-01-31T19:15:12.741Z,6.50
2023-01-31T19:17:39.503Z,6.20
2023-01-31T19:20:06.927Z,6.40
2023-01-31T19:25:00.028Z,5.22
2023-01-31T19:27:26.676Z,4.20
2023-01-31T19:29:53.249Z,4.30
2023-01-31T19:32:19.877Z,4.10
2023-01-31T19:34:46.694Z,3.63
2023-01-31T19:37:13.314Z,3.65
2023-01-31T19:39:39.843Z,4.15
2023-01-31T19:42:06.400Z,4.03
2023-01-31T19:44:32.938Z,5.05
2023-01-31T19:46:59.531Z,5.95
2023-01-31T19:49:26.283Z,9.10
2023-01-31T19:51:52.769Z,5.72
2023-01-31T19:54:19.813Z,6.03
2023-01-31T19:56:46.449Z,5.18
2023-01-31T19:59:13.376Z,4.20
2023-01-31T20:01:39.940Z,4.03
2023-01-31T20:04:06.636Z,3.10
2023-01-31T20:06:34.591Z,3.60
2023-01-31T20:09:04.835Z,5.25
2023-01-31T20:11:32.013Z,5.32
2023-01-31T20:13:58.538Z,6.88
2023-01-31T20:16:25.388Z,5.80
2023-01-31T20:18:54.832Z,4.63
2023-01-31T20:21:22.181Z,3.88
2023-01-31T20:28:44.544Z,2.95
2023-01-31T20:31:13.283Z,3.10
2023-01-31T20:33:40.184Z,3.83
2023-01-31T20:36:07.566Z,2.88
2023-01-31T20:38:34.179Z,3.03
2023-01-31T20:41:00.843Z,2.42
2023-01-31T20:43:27.464Z,3.30
2023-01-31T20:46:02.163Z,3.33
2023-01-31T20:48:28.853Z,3.20
2023-01-31T20:50:56.569Z,2.92
2023-01-31T20:53:24.212Z,2.88
2023-01-31T20:55:58.730Z,3.05
2023-01-31T20:58:26.600Z,3.03
2023-01-31T21:00:55.031Z,2.97
2023-01-31T21:03:22.462Z,3.28
2023-01-31T21:05:50.207Z,3.13
2023-01-31T21:08:17.677Z,3.00
2023-01-31T21:10:49.153Z,3.67
2023-01-31T21:13:15.859Z,4.28
2023-01-31T21:15:56.923Z,3.35
2023-01-31T21:18:27.033Z,3.78
2023-01-31T21:20:53.930Z,3.50
2023-01-31T21:23:20.669Z,4.07
2023-01-31T21:25:47.497Z,4.13
2023-01-31T21:28:14.207Z,4.20
2023-01-31T21:30:40.875Z,4.00
2023-01-31T21:33:07.581Z,4.00
2023-01-31T21:35:34.330Z,3.40
2023-01-31T21:38:00.875Z,3.47
2023-01-31T21:40:27.411Z,3.40
2023-01-31T21:42:54.525Z,3.28
2023-01-31T21:45:40.059Z,4.25
2023-01-31T21:48:29.818Z,12.15
2023-01-31T21:50:57.220Z,6.50
2023-01-31T21:53:23.915Z,4.45
2023-01-31T21:55:50.494Z,4.18
2023-01-31T21:58:17.010Z,5.18
2023-01-31T22:00:44.074Z,5.75
2023-01-31T22:03:11.184Z,4.60
2023-01-31T22:05:37.772Z,4.07
2023-01-31T22:08:04.564Z,4.50
2023-01-31T22:10:31.116Z,4.00
2023-01-31T22:12:57.663Z,4.22
2023-01-31T22:15:24.253Z,3.97
2023-01-31T22:17:50.775Z,3.60
2023-01-31T22:20:17.534Z,4.57
2023-01-31T22:22:44.759Z,4.82
2023-01-31T22:27:37.823Z,3.25
2023-01-31T22:30:15.851Z,3.72
2023-01-31T22:32:51.325Z,3.80
2023-01-31T22:35:17.867Z,2.75
2023-01-31T22:37:44.372Z,2.70
2023-01-31T22:40:11.550Z,3.72
2023-01-31T22:42:38.154Z,3.63
2023-01-31T22:45:06.187Z,2.38
2023-01-31T22:47:32.705Z,3.40
2023-01-31T22:49:59.225Z,2.63
2023-01-31T22:52:25.821Z,2.78
2023-01-31T22:54:52.350Z,3.95
2023-01-31T22:57:18.938Z,2.92
2023-01-31T22:59:45.506Z,4.40
2023-01-31T23:02:12.066Z,5.32
2023-01-31T23:04:38.666Z,4.40
2023-01-31T23:07:05.255Z,4.10
2023-01-31T23:09:31.824Z,4.38
2023-01-31T23:11:58.360Z,4.32
2023-01-31T23:14:24.884Z,6.20
2023-01-31T23:17:09.845Z,6.00
2023-01-31T23:19:37.867Z,5.78
2023-01-31T23:22:04.480Z,6.55
2023-01-31T23:24:31.058Z,5.15
2023-01-31T23:26:57.685Z,6.18
2023-01-31T23:29:24.277Z,4.43
2023-01-31T23:31:50.947Z,5.00
2023-01-31T23:34:17.508Z,4.93
2023-01-31T23:36:44.057Z,3.78
2023-01-31T23:39:10.802Z,4.43
2023-01-31T23:41:37.356Z,4.75
2023-01-31T23:44:04.204Z,3.03
2023-01-31T23:46:31.037Z,3.90
2023-01-31T23:48:57.642Z,3.75
2023-01-31T23:51:24.275Z,4.10
2023-01-31T23:53:50.865Z,2.95
2023-01-31T23:56:17.479Z,2.60
2023-01-31T23:58:44.006Z,3.47
